sensor_id;sensor_type;location;lat;lon;timestamp;P1;durP1;ratioP1;P2;durP2;ratioP2
54823;SDS011;40724;53.196;5.980;2023-07-13T00:01:55;7.22;;;2.63;;
54823;SDS011;40724;53.196;5.980;2023-07-13T00:04:21;5.82;;;2.50;;
54823;SDS011;40724;53.196;5.980;2023-07-13T00:06:50;8.80;;;2.30;;
54823;SDS011;40724;53.196;5.980;2023-07-13T00:09:17;4.05;;;1.90;;
54823;SDS011;40724;53.196;5.980;2023-07-13T00:11:43;4.15;;;1.50;;
54823;SDS011;40724;53.196;5.980;2023-07-13T00:14:10;5.38;;;2.45;;
54823;SDS011;40724;53.196;5.980;2023-07-13T00:16:36;9.00;;;2.75;;
54823;SDS011;40724;53.196;5.980;2023-07-13T00:19:04;4.28;;;1.70;;
54823;SDS011;40724;53.196;5.980;2023-07-13T00:21:30;4.10;;;2.00;;
54823;SDS011;40724;53.196;5.980;2023-07-13T00:23:56;4.97;;;1.63;;
54823;SDS011;40724;53.196;5.980;2023-07-13T00:26:22;7.45;;;2.25;;
54823;SDS011;40724;53.196;5.980;2023-07-13T00:28:48;4.35;;;1.58;;
54823;SDS011;40724;53.196;5.980;2023-07-13T00:31:14;3.63;;;1.27;;
54823;SDS011;40724;53.196;5.980;2023-07-13T00:33:40;3.20;;;1.50;;
54823;SDS011;40724;53.196;5.980;2023-07-13T00:36:07;3.15;;;1.30;;
54823;SDS011;40724;53.196;5.980;2023-07-13T00:38:33;4.13;;;1.33;;
54823;SDS011;40724;53.196;5.980;2023-07-13T00:40:59;4.20;;;1.45;;
54823;SDS011;40724;53.196;5.980;2023-07-13T00:43:27;4.00;;;1.40;;
54823;SDS011;40724;53.196;5.980;2023-07-13T00:48:20;5.10;;;1.30;;
54823;SDS011;40724;53.196;5.980;2023-07-13T00:50:48;2.53;;;1.10;;
54823;SDS011;40724;53.196;5.980;2023-07-13T00:53:16;5.82;;;1.50;;
54823;SDS011;40724;53.196;5.980;2023-07-13T00:55:43;6.95;;;1.40;;
54823;SDS011;40724;53.196;5.980;2023-07-13T00:58:09;2.45;;;0.98;;
54823;SDS011;40724;53.196;5.980;2023-07-13T01:00:35;8.77;;;1.52;;
54823;SDS011;40724;53.196;5.980;2023-07-13T01:03:02;3.85;;;1.27;;
54823;SDS011;40724;53.196;5.980;2023-07-13T01:05:29;1.92;;;1.17;;
54823;SDS011;40724;53.196;5.980;2023-07-13T01:07:57;2.30;;;1.13;;
54823;SDS011;40724;53.196;5.980;2023-07-13T01:10:23;3.45;;;1.17;;
54823;SDS011;40724;53.196;5.980;2023-07-13T01:12:49;4.22;;;1.38;;
54823;SDS011;40724;53.196;5.980;2023-07-13T01:15:49;6.15;;;1.40;;
54823;SDS011;40724;53.196;5.980;2023-07-13T01:18:09;3.95;;;1.35;;
54823;SDS011;40724;53.196;5.980;2023-07-13T01:20:36;4.18;;;1.30;;
54823;SDS011;40724;53.196;5.980;2023-07-13T01:23:07;2.15;;;0.93;;
54823;SDS011;40724;53.196;5.980;2023-07-13T01:25:34;3.28;;;1.30;;
54823;SDS011;40724;53.196;5.980;2023-07-13T01:28:01;3.35;;;1.00;;
54823;SDS011;40724;53.196;5.980;2023-07-13T01:30:28;2.20;;;0.90;;
54823;SDS011;40724;53.196;5.980;2023-07-13T01:32:54;2.45;;;1.17;;
54823;SDS011;40724;53.196;5.980;2023-07-13T01:35:20;2.08;;;1.05;;
54823;SDS011;40724;53.196;5.980;2023-07-13T01:37:45;2.78;;;0.93;;
54823;SDS011;40724;53.196;5.980;2023-07-13T01:40:12;5.45;;;1.15;;
54823;SDS011;40724;53.196;5.980;2023-07-13T01:42:38;3.33;;;1.25;;
54823;SDS011;40724;53.196;5.980;2023-07-13T01:45:04;7.88;;;1.98;;
54823;SDS011;40724;53.196;5.980;2023-07-13T01:47:31;4.82;;;1.23;;
54823;SDS011;40724;53.196;5.980;2023-07-13T01:49:57;1.25;;;0.98;;
54823;SDS011;40724;53.196;5.980;2023-07-13T01:52:23;3.88;;;1.00;;
54823;SDS011;40724;53.196;5.980;2023-07-13T01:54:50;3.28;;;1.00;;
54823;SDS011;40724;53.196;5.980;2023-07-13T01:57:16;1.90;;;1.10;;
54823;SDS011;40724;53.196;5.980;2023-07-13T01:59:42;5.68;;;1.60;;
54823;SDS011;40724;53.196;5.980;2023-07-13T02:02:08;2.83;;;1.38;;
54823;SDS011;40724;53.196;5.980;2023-07-13T02:04:34;2.45;;;1.40;;
54823;SDS011;40724;53.196;5.980;2023-07-13T02:07:00;1.50;;;1.08;;
54823;SDS011;40724;53.196;5.980;2023-07-13T02:09:27;4.28;;;1.10;;
54823;SDS011;40724;53.196;5.980;2023-07-13T02:11:53;4.30;;;1.30;;
54823;SDS011;40724;53.196;5.980;2023-07-13T02:14:19;4.85;;;1.40;;
54823;SDS011;40724;53.196;5.980;2023-07-13T02:16:45;3.08;;;1.38;;
54823;SDS011;40724;53.196;5.980;2023-07-13T02:19:13;5.93;;;2.00;;
54823;SDS011;40724;53.196;5.980;2023-07-13T02:21:40;2.65;;;1.27;;
54823;SDS011;40724;53.196;5.980;2023-07-13T02:24:06;5.47;;;1.25;;
54823;SDS011;40724;53.196;5.980;2023-07-13T02:26:32;4.63;;;1.45;;
54823;SDS011;40724;53.196;5.980;2023-07-13T02:28:58;6.00;;;1.38;;
54823;SDS011;40724;53.196;5.980;2023-07-13T02:31:24;3.33;;;1.33;;
54823;SDS011;40724;53.196;5.980;2023-07-13T02:33:51;4.60;;;1.73;;
54823;SDS011;40724;53.196;5.980;2023-07-13T02:36:17;4.28;;;1.55;;
54823;SDS011;40724;53.196;5.980;2023-07-13T02:38:44;2.83;;;1.50;;
54823;SDS011;40724;53.196;5.980;2023-07-13T02:41:10;4.18;;;1.45;;
54823;SDS011;40724;53.196;5.980;2023-07-13T02:43:37;4.85;;;2.35;;
54823;SDS011;40724;53.196;5.980;2023-07-13T02:46:04;5.35;;;1.50;;
54823;SDS011;40724;53.196;5.980;2023-07-13T02:48:35;4.80;;;1.60;;
54823;SDS011;40724;53.196;5.980;2023-07-13T02:51:02;5.35;;;2.13;;
54823;SDS011;40724;53.196;5.980;2023-07-13T02:53:28;8.10;;;3.00;;
54823;SDS011;40724;53.196;5.980;2023-07-13T02:55:54;7.10;;;1.80;;
54823;SDS011;40724;53.196;5.980;2023-07-13T02:58:20;5.38;;;2.47;;
54823;SDS011;40724;53.196;5.980;2023-07-13T03:00:47;5.80;;;2.28;;
54823;SDS011;40724;53.196;5.980;2023-07-13T03:03:15;7.70;;;2.22;;
54823;SDS011;40724;53.196;5.980;2023-07-13T03:05:42;7.90;;;2.85;;
54823;SDS011;40724;53.196;5.980;2023-07-13T03:08:10;4.70;;;2.15;;
54823;SDS011;40724;53.196;5.980;2023-07-13T03:10:36;6.63;;;2.05;;
54823;SDS011;40724;53.196;5.980;2023-07-13T03:13:03;13.65;;;2.50;;
54823;SDS011;40724;53.196;5.980;2023-07-13T03:15:29;7.57;;;2.63;;
54823;SDS011;40724;53.196;5.980;2023-07-13T03:17:55;8.00;;;2.92;;
54823;SDS011;40724;53.196;5.980;2023-07-13T03:20:21;8.57;;;2.42;;
54823;SDS011;40724;53.196;5.980;2023-07-13T03:22:47;4.90;;;2.33;;
54823;SDS011;40724;53.196;5.980;2023-07-13T03:25:13;6.45;;;2.30;;
54823;SDS011;40724;53.196;5.980;2023-07-13T03:27:39;5.45;;;2.92;;
54823;SDS011;40724;53.196;5.980;2023-07-13T03:30:06;15.50;;;3.17;;
54823;SDS011;40724;53.196;5.980;2023-07-13T03:32:32;9.77;;;2.80;;
54823;SDS011;40724;53.196;5.980;2023-07-13T03:34:58;9.68;;;2.60;;
54823;SDS011;40724;53.196;5.980;2023-07-13T03:37:24;13.98;;;3.22;;
54823;SDS011;40724;53.196;5.980;2023-07-13T03:39:51;8.45;;;2.60;;
54823;SDS011;40724;53.196;5.980;2023-07-13T03:42:17;8.13;;;2.15;;
54823;SDS011;40724;53.196;5.980;2023-07-13T03:44:43;10.30;;;3.13;;
54823;SDS011;40724;53.196;5.980;2023-07-13T03:47:17;8.55;;;3.20;;
54823;SDS011;40724;53.196;5.980;2023-07-13T03:49:44;10.93;;;3.83;;
54823;SDS011;40724;53.196;5.980;2023-07-13T03:52:11;8.45;;;2.42;;
54823;SDS011;40724;53.196;5.980;2023-07-13T03:54:37;8.18;;;2.80;;
54823;SDS011;40724;53.196;5.980;2023-07-13T03:57:03;5.55;;;2.55;;
54823;SDS011;40724;53.196;5.980;2023-07-13T03:59:30;8.63;;;3.28;;
54823;SDS011;40724;53.196;5.980;2023-07-13T04:01:56;8.38;;;2.63;;
54823;SDS011;40724;53.196;5.980;2023-07-13T04:04:22;8.50;;;2.58;;
54823;SDS011;40724;53.196;5.980;2023-07-13T04:06:48;6.10;;;2.65;;
54823;SDS011;40724;53.196;5.980;2023-07-13T04:09:14;6.60;;;2.67;;
54823;SDS011;40724;53.196;5.980;2023-07-13T04:11:40;7.43;;;2.75;;
54823;SDS011;40724;53.196;5.980;2023-07-13T04:14:06;5.10;;;2.70;;
54823;SDS011;40724;53.196;5.980;2023-07-13T04:16:32;5.82;;;2.42;;
54823;SDS011;40724;53.196;5.980;2023-07-13T04:18:58;6.70;;;2.47;;
54823;SDS011;40724;53.196;5.980;2023-07-13T04:21:26;4.25;;;1.90;;
54823;SDS011;40724;53.196;5.980;2023-07-13T04:23:52;5.82;;;2.60;;
54823;SDS011;40724;53.196;5.980;2023-07-13T04:26:19;10.20;;;3.28;;
54823;SDS011;40724;53.196;5.980;2023-07-13T04:28:49;6.38;;;2.53;;
54823;SDS011;40724;53.196;5.980;2023-07-13T04:31:15;9.23;;;2.30;;
54823;SDS011;40724;53.196;5.980;2023-07-13T04:33:41;6.28;;;2.33;;
54823;SDS011;40724;53.196;5.980;2023-07-13T04:36:08;4.70;;;2.63;;
54823;SDS011;40724;53.196;5.980;2023-07-13T04:38:35;6.97;;;3.47;;
54823;SDS011;40724;53.196;5.980;2023-07-13T04:41:02;5.97;;;2.30;;
54823;SDS011;40724;53.196;5.980;2023-07-13T04:43:29;6.70;;;2.33;;
54823;SDS011;40724;53.196;5.980;2023-07-13T04:45:56;6.97;;;2.30;;
54823;SDS011;40724;53.196;5.980;2023-07-13T04:48:22;4.95;;;2.22;;
54823;SDS011;40724;53.196;5.980;2023-07-13T04:50:54;7.57;;;2.88;;
54823;SDS011;40724;53.196;5.980;2023-07-13T04:53:20;9.57;;;2.75;;
54823;SDS011;40724;53.196;5.980;2023-07-13T04:55:46;6.90;;;2.38;;
54823;SDS011;40724;53.196;5.980;2023-07-13T04:58:12;5.75;;;2.20;;
54823;SDS011;40724;53.196;5.980;2023-07-13T05:00:39;9.32;;;3.17;;
54823;SDS011;40724;53.196;5.980;2023-07-13T05:03:05;6.15;;;2.67;;
54823;SDS011;40724;53.196;5.980;2023-07-13T05:05:31;7.40;;;2.08;;
54823;SDS011;40724;53.196;5.980;2023-07-13T05:07:57;7.93;;;3.08;;
54823;SDS011;40724;53.196;5.980;2023-07-13T05:10:23;6.15;;;2.28;;
54823;SDS011;40724;53.196;5.980;2023-07-13T05:12:50;6.53;;;3.03;;
54823;SDS011;40724;53.196;5.980;2023-07-13T05:15:16;9.80;;;3.30;;
54823;SDS011;40724;53.196;5.980;2023-07-13T05:17:49;7.65;;;3.05;;
54823;SDS011;40724;53.196;5.980;2023-07-13T05:20:16;3.55;;;1.92;;
54823;SDS011;40724;53.196;5.980;2023-07-13T05:22:42;7.05;;;2.38;;
54823;SDS011;40724;53.196;5.980;2023-07-13T05:25:09;9.45;;;2.80;;
54823;SDS011;40724;53.196;5.980;2023-07-13T05:27:35;6.53;;;2.50;;
54823;SDS011;40724;53.196;5.980;2023-07-13T05:30:02;8.23;;;2.63;;
54823;SDS011;40724;53.196;5.980;2023-07-13T05:32:28;6.18;;;2.92;;
54823;SDS011;40724;53.196;5.980;2023-07-13T05:34:54;6.75;;;2.28;;
54823;SDS011;40724;53.196;5.980;2023-07-13T05:37:21;6.15;;;2.40;;
54823;SDS011;40724;53.196;5.980;2023-07-13T05:39:47;5.88;;;2.40;;
54823;SDS011;40724;53.196;5.980;2023-07-13T05:42:13;3.83;;;2.20;;
54823;SDS011;40724;53.196;5.980;2023-07-13T05:44:39;6.05;;;2.42;;
54823;SDS011;40724;53.196;5.980;2023-07-13T05:47:05;6.22;;;2.20;;
54823;SDS011;40724;53.196;5.980;2023-07-13T05:49:31;5.00;;;2.58;;
54823;SDS011;40724;53.196;5.980;2023-07-13T05:51:57;5.70;;;2.70;;
54823;SDS011;40724;53.196;5.980;2023-07-13T05:54:24;4.70;;;2.35;;
54823;SDS011;40724;53.196;5.980;2023-07-13T05:56:50;6.00;;;2.47;;
54823;SDS011;40724;53.196;5.980;2023-07-13T05:59:17;3.95;;;2.35;;
54823;SDS011;40724;53.196;5.980;2023-07-13T06:01:43;6.20;;;2.40;;
54823;SDS011;40724;53.196;5.980;2023-07-13T06:04:09;7.97;;;2.90;;
54823;SDS011;40724;53.196;5.980;2023-07-13T06:06:35;6.90;;;2.67;;
54823;SDS011;40724;53.196;5.980;2023-07-13T06:09:02;3.45;;;1.70;;
54823;SDS011;40724;53.196;5.980;2023-07-13T06:11:28;3.95;;;1.90;;
54823;SDS011;40724;53.196;5.980;2023-07-13T06:13:55;6.55;;;1.98;;
54823;SDS011;40724;53.196;5.980;2023-07-13T06:16:21;5.13;;;2.15;;
54823;SDS011;40724;53.196;5.980;2023-07-13T06:18:48;3.70;;;1.77;;
54823;SDS011;40724;53.196;5.980;2023-07-13T06:21:16;5.70;;;2.40;;
54823;SDS011;40724;53.196;5.980;2023-07-13T06:23:42;6.60;;;2.60;;
54823;SDS011;40724;53.196;5.980;2023-07-13T06:26:09;7.65;;;1.90;;
54823;SDS011;40724;53.196;5.980;2023-07-13T06:28:36;4.05;;;1.83;;
54823;SDS011;40724;53.196;5.980;2023-07-13T06:31:04;5.70;;;1.88;;
54823;SDS011;40724;53.196;5.980;2023-07-13T06:33:30;3.95;;;1.85;;
54823;SDS011;40724;53.196;5.980;2023-07-13T06:35:57;4.43;;;2.42;;
54823;SDS011;40724;53.196;5.980;2023-07-13T06:38:23;4.13;;;1.77;;
54823;SDS011;40724;53.196;5.980;2023-07-13T06:40:49;5.93;;;2.88;;
54823;SDS011;40724;53.196;5.980;2023-07-13T06:43:15;6.18;;;2.08;;
54823;SDS011;40724;53.196;5.980;2023-07-13T06:45:44;6.10;;;1.55;;
54823;SDS011;40724;53.196;5.980;2023-07-13T06:48:12;5.15;;;1.85;;
54823;SDS011;40724;53.196;5.980;2023-07-13T06:50:38;7.57;;;2.20;;
54823;SDS011;40724;53.196;5.980;2023-07-13T06:53:04;4.97;;;2.10;;
54823;SDS011;40724;53.196;5.980;2023-07-13T06:55:30;4.85;;;1.70;;
54823;SDS011;40724;53.196;5.980;2023-07-13T06:57:57;4.55;;;1.48;;
54823;SDS011;40724;53.196;5.980;2023-07-13T07:00:23;4.45;;;1.48;;
54823;SDS011;40724;53.196;5.980;2023-07-13T07:02:49;3.08;;;1.52;;
54823;SDS011;40724;53.196;5.980;2023-07-13T07:05:15;3.70;;;1.35;;
54823;SDS011;40724;53.196;5.980;2023-07-13T07:07:41;2.83;;;1.63;;
54823;SDS011;40724;53.196;5.980;2023-07-13T07:10:08;5.05;;;1.63;;
54823;SDS011;40724;53.196;5.980;2023-07-13T07:12:34;3.03;;;1.70;;
54823;SDS011;40724;53.196;5.980;2023-07-13T07:15:00;4.05;;;1.35;;
54823;SDS011;40724;53.196;5.980;2023-07-13T07:17:26;4.20;;;1.90;;
54823;SDS011;40724;53.196;5.980;2023-07-13T07:19:52;3.33;;;1.30;;
54823;SDS011;40724;53.196;5.980;2023-07-13T07:22:19;5.80;;;1.80;;
54823;SDS011;40724;53.196;5.980;2023-07-13T07:24:45;4.22;;;2.13;;
54823;SDS011;40724;53.196;5.980;2023-07-13T07:27:11;3.58;;;1.27;;
54823;SDS011;40724;53.196;5.980;2023-07-13T07:29:38;5.22;;;1.73;;
54823;SDS011;40724;53.196;5.980;2023-07-13T07:32:04;8.52;;;1.80;;
54823;SDS011;40724;53.196;5.980;2023-07-13T07:34:30;3.17;;;1.75;;
54823;SDS011;40724;53.196;5.980;2023-07-13T07:36:59;5.60;;;1.48;;
54823;SDS011;40724;53.196;5.980;2023-07-13T07:39:26;3.17;;;1.20;;
54823;SDS011;40724;53.196;5.980;2023-07-13T07:41:52;5.63;;;1.95;;
54823;SDS011;40724;53.196;5.980;2023-07-13T07:44:18;2.35;;;1.50;;
54823;SDS011;40724;53.196;5.980;2023-07-13T07:46:44;2.50;;;1.50;;
54823;SDS011;40724;53.196;5.980;2023-07-13T07:49:10;4.80;;;1.70;;
54823;SDS011;40724;53.196;5.980;2023-07-13T07:51:36;3.63;;;1.55;;
54823;SDS011;40724;53.196;5.980;2023-07-13T07:54:03;3.03;;;1.67;;
54823;SDS011;40724;53.196;5.980;2023-07-13T07:56:29;3.22;;;1.50;;
54823;SDS011;40724;53.196;5.980;2023-07-13T07:58:55;4.15;;;1.58;;
54823;SDS011;40724;53.196;5.980;2023-07-13T08:01:21;3.03;;;1.30;;
54823;SDS011;40724;53.196;5.980;2023-07-13T08:03:47;4.22;;;1.50;;
54823;SDS011;40724;53.196;5.980;2023-07-13T08:06:13;3.67;;;1.40;;
54823;SDS011;40724;53.196;5.980;2023-07-13T08:08:39;4.45;;;1.98;;
54823;SDS011;40724;53.196;5.980;2023-07-13T08:11:06;2.13;;;1.27;;
54823;SDS011;40724;53.196;5.980;2023-07-13T08:13:33;3.85;;;1.65;;
54823;SDS011;40724;53.196;5.980;2023-07-13T08:16:00;2.53;;;1.30;;
54823;SDS011;40724;53.196;5.980;2023-07-13T08:18:26;5.70;;;1.85;;
54823;SDS011;40724;53.196;5.980;2023-07-13T08:20:53;8.07;;;1.45;;
54823;SDS011;40724;53.196;5.980;2023-07-13T08:23:22;3.80;;;1.80;;
54823;SDS011;40724;53.196;5.980;2023-07-13T08:25:52;3.17;;;1.50;;
54823;SDS011;40724;53.196;5.980;2023-07-13T08:28:19;3.45;;;1.65;;
54823;SDS011;40724;53.196;5.980;2023-07-13T08:30:45;7.38;;;2.00;;
54823;SDS011;40724;53.196;5.980;2023-07-13T08:33:18;4.53;;;1.58;;
54823;SDS011;40724;53.196;5.980;2023-07-13T08:35:48;3.33;;;2.10;;
54823;SDS011;40724;53.196;5.980;2023-07-13T08:38:15;6.20;;;2.03;;
54823;SDS011;40724;53.196;5.980;2023-07-13T08:40:41;6.35;;;1.98;;
54823;SDS011;40724;53.196;5.980;2023-07-13T08:43:18;3.08;;;2.00;;
54823;SDS011;40724;53.196;5.980;2023-07-13T08:45:47;2.70;;;1.58;;
54823;SDS011;40724;53.196;5.980;2023-07-13T08:48:24;3.72;;;1.70;;
54823;SDS011;40724;53.196;5.980;2023-07-13T08:51:09;3.85;;;1.50;;
54823;SDS011;40724;53.196;5.980;2023-07-13T08:53:38;4.85;;;1.85;;
54823;SDS011;40724;53.196;5.980;2023-07-13T08:56:09;2.75;;;1.15;;
54823;SDS011;40724;53.196;5.980;2023-07-13T08:58:37;4.05;;;1.80;;
54823;SDS011;40724;53.196;5.980;2023-07-13T09:01:08;3.58;;;1.90;;
54823;SDS011;40724;53.196;5.980;2023-07-13T09:03:37;3.22;;;1.77;;
54823;SDS011;40724;53.196;5.980;2023-07-13T09:06:06;3.92;;;1.70;;
54823;SDS011;40724;53.196;5.980;2023-07-13T09:11:23;3.33;;;1.35;;
54823;SDS011;40724;53.196;5.980;2023-07-13T09:16:36;3.05;;;1.33;;
54823;SDS011;40724;53.196;5.980;2023-07-13T09:19:04;2.10;;;1.50;;
54823;SDS011;40724;53.196;5.980;2023-07-13T09:21:32;3.47;;;1.60;;
54823;SDS011;40724;53.196;5.980;2023-07-13T09:24:01;4.10;;;1.30;;
54823;SDS011;40724;53.196;5.980;2023-07-13T09:26:28;3.50;;;1.58;;
54823;SDS011;40724;53.196;5.980;2023-07-13T09:29:37;6.38;;;1.83;;
54823;SDS011;40724;53.196;5.980;2023-07-13T09:31:46;1.70;;;1.35;;
54823;SDS011;40724;53.196;5.980;2023-07-13T09:34:14;3.60;;;1.23;;
54823;SDS011;40724;53.196;5.980;2023-07-13T09:36:40;2.63;;;1.65;;
54823;SDS011;40724;53.196;5.980;2023-07-13T09:44:30;3.05;;;1.30;;
54823;SDS011;40724;53.196;5.980;2023-07-13T09:46:57;2.78;;;1.30;;
54823;SDS011;40724;53.196;5.980;2023-07-13T09:49:25;3.10;;;1.02;;
54823;SDS011;40724;53.196;5.980;2023-07-13T09:51:57;4.15;;;1.38;;
54823;SDS011;40724;53.196;5.980;2023-07-13T09:54:24;3.05;;;1.75;;
54823;SDS011;40724;53.196;5.980;2023-07-13T09:56:58;2.30;;;1.10;;
54823;SDS011;40724;53.196;5.980;2023-07-13T09:59:28;1.23;;;1.00;;
54823;SDS011;40724;53.196;5.980;2023-07-13T10:01:54;2.47;;;0.93;;
54823;SDS011;40724;53.196;5.980;2023-07-13T10:04:26;3.88;;;1.45;;
54823;SDS011;40724;53.196;5.980;2023-07-13T10:06:52;2.50;;;1.03;;
54823;SDS011;40724;53.196;5.980;2023-07-13T10:09:30;2.10;;;1.05;;
54823;SDS011;40724;53.196;5.980;2023-07-13T10:11:57;4.55;;;1.40;;
54823;SDS011;40724;53.196;5.980;2023-07-13T10:14:23;2.65;;;1.25;;
54823;SDS011;40724;53.196;5.980;2023-07-13T10:16:52;2.03;;;1.13;;
54823;SDS011;40724;53.196;5.980;2023-07-13T10:19:25;3.65;;;1.42;;
54823;SDS011;40724;53.196;5.980;2023-07-13T10:21:53;2.50;;;1.10;;
54823;SDS011;40724;53.196;5.980;2023-07-13T10:24:21;2.88;;;1.23;;
54823;SDS011;40724;53.196;5.980;2023-07-13T10:26:50;3.35;;;0.98;;
54823;SDS011;40724;53.196;5.980;2023-07-13T10:29:20;1.70;;;1.00;;
54823;SDS011;40724;53.196;5.980;2023-07-13T10:31:47;1.90;;;1.25;;
54823;SDS011;40724;53.196;5.980;2023-07-13T10:34:13;8.30;;;1.70;;
54823;SDS011;40724;53.196;5.980;2023-07-13T10:36:43;4.97;;;1.90;;
54823;SDS011;40724;53.196;5.980;2023-07-13T10:39:28;6.18;;;1.98;;
54823;SDS011;40724;53.196;5.980;2023-07-13T10:42:03;3.03;;;1.42;;
54823;SDS011;40724;53.196;5.980;2023-07-13T10:44:32;3.95;;;1.80;;
54823;SDS011;40724;53.196;5.980;2023-07-13T10:46:59;3.08;;;1.58;;
54823;SDS011;40724;53.196;5.980;2023-07-13T10:49:27;2.63;;;1.48;;
54823;SDS011;40724;53.196;5.980;2023-07-13T10:51:54;4.00;;;1.80;;
54823;SDS011;40724;53.196;5.980;2023-07-13T10:54:22;4.70;;;1.42;;
54823;SDS011;40724;53.196;5.980;2023-07-13T10:57:37;3.70;;;1.25;;
54823;SDS011;40724;53.196;5.980;2023-07-13T10:59:38;2.00;;;1.20;;
54823;SDS011;40724;53.196;5.980;2023-07-13T11:04:42;2.70;;;1.40;;
54823;SDS011;40724;53.196;5.980;2023-07-13T11:07:11;8.02;;;2.20;;
54823;SDS011;40724;53.196;5.980;2023-07-13T11:09:38;2.10;;;1.30;;
54823;SDS011;40724;53.196;5.980;2023-07-13T11:14:43;5.68;;;1.33;;
54823;SDS011;40724;53.196;5.980;2023-07-13T11:22:44;3.80;;;1.60;;
54823;SDS011;40724;53.196;5.980;2023-07-13T11:27:51;8.63;;;1.92;;
54823;SDS011;40724;53.196;5.980;2023-07-13T11:32:51;3.22;;;1.60;;
54823;SDS011;40724;53.196;5.980;2023-07-13T11:35:24;2.03;;;1.40;;
54823;SDS011;40724;53.196;5.980;2023-07-13T11:37:52;5.60;;;1.58;;
54823;SDS011;40724;53.196;5.980;2023-07-13T11:40:19;3.88;;;2.05;;
54823;SDS011;40724;53.196;5.980;2023-07-13T11:42:47;4.82;;;1.60;;
54823;SDS011;40724;53.196;5.980;2023-07-13T11:45:20;3.13;;;1.60;;
54823;SDS011;40724;53.196;5.980;2023-07-13T11:47:50;5.68;;;2.10;;
54823;SDS011;40724;53.196;5.980;2023-07-13T11:50:20;4.32;;;1.70;;
54823;SDS011;40724;53.196;5.980;2023-07-13T11:52:46;3.33;;;1.88;;
54823;SDS011;40724;53.196;5.980;2023-07-13T11:55:14;4.13;;;1.55;;
54823;SDS011;40724;53.196;5.980;2023-07-13T11:57:44;3.28;;;1.25;;
54823;SDS011;40724;53.196;5.980;2023-07-13T12:00:12;4.70;;;1.60;;
54823;SDS011;40724;53.196;5.980;2023-07-13T12:02:45;2.92;;;1.33;;
54823;SDS011;40724;53.196;5.980;2023-07-13T12:05:12;3.08;;;1.60;;
54823;SDS011;40724;53.196;5.980;2023-07-13T12:07:39;5.10;;;1.50;;
54823;SDS011;40724;53.196;5.980;2023-07-13T12:12:36;5.35;;;1.77;;
54823;SDS011;40724;53.196;5.980;2023-07-13T12:15:05;4.72;;;1.30;;
54823;SDS011;40724;53.196;5.980;2023-07-13T12:17:32;8.18;;;1.73;;
54823;SDS011;40724;53.196;5.980;2023-07-13T12:20:00;6.93;;;1.25;;
54823;SDS011;40724;53.196;5.980;2023-07-13T12:22:26;3.25;;;1.42;;
54823;SDS011;40724;53.196;5.980;2023-07-13T12:24:53;3.70;;;1.90;;
54823;SDS011;40724;53.196;5.980;2023-07-13T12:27:26;4.13;;;1.60;;
54823;SDS011;40724;53.196;5.980;2023-07-13T12:30:03;3.03;;;1.50;;
54823;SDS011;40724;53.196;5.980;2023-07-13T12:32:30;4.15;;;1.75;;
54823;SDS011;40724;53.196;5.980;2023-07-13T12:35:16;7.65;;;2.95;;
54823;SDS011;40724;53.196;5.980;2023-07-13T12:37:44;4.72;;;1.92;;
54823;SDS011;40724;53.196;5.980;2023-07-13T12:40:15;2.88;;;1.80;;
54823;SDS011;40724;53.196;5.980;2023-07-13T12:45:15;3.08;;;1.58;;
54823;SDS011;40724;53.196;5.980;2023-07-13T12:47:43;3.40;;;2.03;;
54823;SDS011;40724;53.196;5.980;2023-07-13T12:50:14;4.93;;;2.72;;
54823;SDS011;40724;53.196;5.980;2023-07-13T12:52:42;7.60;;;2.00;;
54823;SDS011;40724;53.196;5.980;2023-07-13T12:55:17;6.82;;;2.53;;
54823;SDS011;40724;53.196;5.980;2023-07-13T12:57:50;7.88;;;2.30;;
54823;SDS011;40724;53.196;5.980;2023-07-13T13:00:37;4.65;;;1.90;;
54823;SDS011;40724;53.196;5.980;2023-07-13T13:05:48;3.60;;;1.95;;
54823;SDS011;40724;53.196;5.980;2023-07-13T13:08:14;8.13;;;1.80;;
54823;SDS011;40724;53.196;5.980;2023-07-13T13:10:40;3.90;;;1.63;;
54823;SDS011;40724;53.196;5.980;2023-07-13T13:13:06;6.32;;;2.35;;
54823;SDS011;40724;53.196;5.980;2023-07-13T13:15:33;3.42;;;1.90;;
54823;SDS011;40724;53.196;5.980;2023-07-13T13:18:01;8.68;;;2.00;;
54823;SDS011;40724;53.196;5.980;2023-07-13T13:20:27;6.75;;;2.67;;
54823;SDS011;40724;53.196;5.980;2023-07-13T13:22:53;5.82;;;1.95;;
54823;SDS011;40724;53.196;5.980;2023-07-13T13:25:20;6.97;;;2.63;;
54823;SDS011;40724;53.196;5.980;2023-07-13T13:27:47;7.95;;;3.05;;
54823;SDS011;40724;53.196;5.980;2023-07-13T13:30:15;4.90;;;2.30;;
54823;SDS011;40724;53.196;5.980;2023-07-13T13:32:42;9.13;;;3.03;;
54823;SDS011;40724;53.196;5.980;2023-07-13T13:37:41;7.38;;;2.28;;
54823;SDS011;40724;53.196;5.980;2023-07-13T13:40:28;8.60;;;2.85;;
54823;SDS011;40724;53.196;5.980;2023-07-13T13:42:56;4.78;;;2.25;;
54823;SDS011;40724;53.196;5.980;2023-07-13T13:45:22;4.00;;;2.10;;
54823;SDS011;40724;53.196;5.980;2023-07-13T13:47:49;5.20;;;2.33;;
54823;SDS011;40724;53.196;5.980;2023-07-13T13:52:42;4.43;;;2.22;;
54823;SDS011;40724;53.196;5.980;2023-07-13T13:55:12;4.55;;;1.98;;
54823;SDS011;40724;53.196;5.980;2023-07-13T13:57:38;4.75;;;2.33;;
54823;SDS011;40724;53.196;5.980;2023-07-13T14:00:05;4.20;;;1.70;;
54823;SDS011;40724;53.196;5.980;2023-07-13T14:02:31;4.85;;;2.35;;
54823;SDS011;40724;53.196;5.980;2023-07-13T14:04:58;8.60;;;2.10;;
54823;SDS011;40724;53.196;5.980;2023-07-13T14:07:25;2.95;;;1.58;;
54823;SDS011;40724;53.196;5.980;2023-07-13T14:09:52;3.35;;;2.22;;
54823;SDS011;40724;53.196;5.980;2023-07-13T14:12:18;5.78;;;1.95;;
54823;SDS011;40724;53.196;5.980;2023-07-13T14:14:45;7.97;;;2.70;;
54823;SDS011;40724;53.196;5.980;2023-07-13T14:17:29;4.13;;;1.98;;
54823;SDS011;40724;53.196;5.980;2023-07-13T14:19:55;5.63;;;2.13;;
54823;SDS011;40724;53.196;5.980;2023-07-13T14:22:23;3.95;;;1.90;;
54823;SDS011;40724;53.196;5.980;2023-07-13T14:24:50;4.13;;;2.45;;
54823;SDS011;40724;53.196;5.980;2023-07-13T14:27:17;5.65;;;2.45;;
54823;SDS011;40724;53.196;5.980;2023-07-13T14:29:43;5.45;;;1.80;;
54823;SDS011;40724;53.196;5.980;2023-07-13T14:32:12;5.75;;;2.40;;
54823;SDS011;40724;53.196;5.980;2023-07-13T14:34:39;4.57;;;2.22;;
54823;SDS011;40724;53.196;5.980;2023-07-13T14:37:05;4.82;;;1.95;;
54823;SDS011;40724;53.196;5.980;2023-07-13T14:39:31;5.30;;;2.60;;
54823;SDS011;40724;53.196;5.980;2023-07-13T14:41:57;5.93;;;2.33;;
54823;SDS011;40724;53.196;5.980;2023-07-13T14:44:25;6.35;;;2.22;;
54823;SDS011;40724;53.196;5.980;2023-07-13T14:46:51;6.53;;;1.90;;
54823;SDS011;40724;53.196;5.980;2023-07-13T14:49:25;6.07;;;2.33;;
54823;SDS011;40724;53.196;5.980;2023-07-13T14:51:52;5.88;;;2.25;;
54823;SDS011;40724;53.196;5.980;2023-07-13T14:54:18;7.30;;;2.97;;
54823;SDS011;40724;53.196;5.980;2023-07-13T14:56:44;7.28;;;1.80;;
54823;SDS011;40724;53.196;5.980;2023-07-13T14:59:11;9.35;;;2.55;;
54823;SDS011;40724;53.196;5.980;2023-07-13T15:01:38;8.20;;;3.50;;
54823;SDS011;40724;53.196;5.980;2023-07-13T15:04:08;5.40;;;2.10;;
54823;SDS011;40724;53.196;5.980;2023-07-13T15:06:52;3.25;;;1.83;;
54823;SDS011;40724;53.196;5.980;2023-07-13T15:09:19;6.18;;;2.22;;
54823;SDS011;40724;53.196;5.980;2023-07-13T15:11:45;4.82;;;2.15;;
54823;SDS011;40724;53.196;5.980;2023-07-13T15:14:11;3.55;;;1.95;;
54823;SDS011;40724;53.196;5.980;2023-07-13T15:16:37;3.25;;;1.75;;
54823;SDS011;40724;53.196;5.980;2023-07-13T15:19:03;8.18;;;2.60;;
54823;SDS011;40724;53.196;5.980;2023-07-13T15:21:29;9.65;;;2.50;;
54823;SDS011;40724;53.196;5.980;2023-07-13T15:23:59;3.65;;;2.00;;
54823;SDS011;40724;53.196;5.980;2023-07-13T15:26:26;4.07;;;2.38;;
54823;SDS011;40724;53.196;5.980;2023-07-13T15:28:52;3.65;;;1.75;;
54823;SDS011;40724;53.196;5.980;2023-07-13T15:31:20;5.38;;;2.20;;
54823;SDS011;40724;53.196;5.980;2023-07-13T15:33:46;6.45;;;2.25;;